Terminal Aerodrome Forecast
Issued by NWS

Home | Current Version | Previous Version | Graphics & Text | Print | Product List | Glossary On
Versions: 1 2 3 4 5 6 7 8 9 10 11 12 13 14
000
FTUS43 KICT 251143
TAFRSL
TAF
KRSL 251143Z 2512/2612 23007KT P6SM SCT130
     FM251600 28013KT P6SM SCT050 BKN100
     FM251800 33017G22KT P6SM OVC050
     FM252000 35025G35KT P6SM OVC050=

USA.gov is the U.S. government's official web portal to all federal, state and local government web resources and services.